createdAt,value
2022-09-20T00:00:26.249Z,98816.87
2022-09-20T00:01:23.534Z,98815.96
2022-09-20T00:01:56.759Z,98817.66
2022-09-20T00:02:29.832Z,98813.55
2022-09-20T00:03:02.939Z,98816.06
2022-09-20T00:03:38.632Z,98813.52
2022-09-20T00:04:11.716Z,98811.16
2022-09-20T00:04:44.829Z,98813.95
2022-09-20T00:05:18.074Z,98814.86
2022-09-20T00:05:51.312Z,98810.77
2022-09-20T00:06:27.459Z,98813.42
2022-09-20T00:07:00.508Z,98812.11
2022-09-20T00:07:33.774Z,98811.65
2022-09-20T00:08:10.596Z,98812.88
2022-09-20T00:08:44.640Z,98813.92
2022-09-20T00:09:17.742Z,98811.93
2022-09-20T00:09:51.314Z,98813.04
2022-09-20T00:10:24.802Z,98815.75
2022-09-20T00:11:02.641Z,98814.35
2022-09-20T00:11:37.279Z,98815.13
2022-09-20T00:12:10.808Z,98815.52
2022-09-20T00:12:44.076Z,98815.36
2022-09-20T00:13:17.249Z,98813.06
2022-09-20T00:13:53.338Z,98811.49
2022-09-20T00:14:26.371Z,98813.91
2022-09-20T00:14:59.386Z,98815.00
2022-09-20T00:15:33.632Z,98815.48
2022-09-20T00:16:09.692Z,98815.33
2022-09-20T00:16:43.090Z,98815.11
2022-09-20T00:17:16.346Z,98814.19
2022-09-20T00:17:49.566Z,98817.51
2022-09-20T00:18:22.950Z,98818.84
2022-09-20T00:18:58.244Z,98818.48
2022-09-20T00:19:31.412Z,98823.37
2022-09-20T00:20:04.822Z,98822.80
2022-09-20T00:20:45.358Z,98822.25
2022-09-20T00:21:21.303Z,98823.02
2022-09-20T00:21:54.347Z,98820.44
2022-09-20T00:22:27.943Z,98825.16
2022-09-20T00:23:01.060Z,98822.15
2022-09-20T00:23:36.196Z,98823.47
2022-09-20T00:24:11.054Z,98823.35
2022-09-20T00:24:48.731Z,98827.05
2022-09-20T00:25:22.756Z,98825.91
2022-09-20T00:26:01.697Z,98824.02
2022-09-20T00:26:34.861Z,98827.45
2022-09-20T00:27:07.971Z,98827.12
2022-09-20T00:27:41.163Z,98827.68
2022-09-20T00:28:14.383Z,98826.63
2022-09-20T00:28:47.698Z,98825.55
2022-09-20T00:29:20.846Z,98828.23
2022-09-20T00:29:54.072Z,98825.13
2022-09-20T00:30:27.400Z,98829.70
2022-09-20T00:31:01.230Z,98831.11
2022-09-20T00:31:35.865Z,98830.64
2022-09-20T00:32:09.057Z,98834.20
2022-09-20T00:32:42.131Z,98832.58
2022-09-20T00:33:15.584Z,98833.61
2022-09-20T00:34:07.534Z,98831.36
2022-09-20T00:34:59.481Z,98831.45
2022-09-20T00:35:33.362Z,98832.20
2022-09-20T00:36:06.492Z,98833.61
2022-09-20T00:36:39.653Z,98830.80
2022-09-20T00:37:12.729Z,98831.30
2022-09-20T00:37:45.846Z,98832.14
2022-09-20T00:38:20.705Z,98831.27
2022-09-20T00:38:59.034Z,98830.16
2022-09-20T00:39:32.249Z,98831.05
2022-09-20T00:40:07.927Z,98833.99
2022-09-20T00:40:42.851Z,98832.10
2022-09-20T00:41:17.044Z,98831.62
2022-09-20T00:41:50.029Z,98835.70
2022-09-20T00:42:28.799Z,98833.63
2022-09-20T00:43:01.915Z,98836.42
2022-09-20T00:43:41.235Z,98836.33
2022-09-20T00:44:56.211Z,98834.81
2022-09-20T00:45:30.785Z,98835.21
2022-09-20T00:46:05.356Z,98834.04
2022-09-20T00:46:43.876Z,98830.27
2022-09-20T00:47:25.119Z,98833.77
2022-09-20T00:48:13.250Z,98830.75
2022-09-20T00:48:47.101Z,98832.85
2022-09-20T00:49:27.025Z,98829.94
2022-09-20T00:50:24.556Z,98829.09
2022-09-20T00:51:07.810Z,98830.20
2022-09-20T00:51:46.570Z,98830.58
2022-09-20T00:52:20.833Z,98827.52
2022-09-20T00:53:07.677Z,98829.80
2022-09-20T00:53:45.349Z,98831.89
2022-09-20T00:54:20.958Z,98829.66
2022-09-20T00:54:54.920Z,98831.35
2022-09-20T00:55:29.464Z,98828.47
2022-09-20T00:56:09.354Z,98830.92
2022-09-20T00:56:44.342Z,98828.85
2022-09-20T00:57:17.812Z,98829.57
2022-09-20T00:57:51.438Z,98830.83
2022-09-20T00:58:27.705Z,98831.27
2022-09-20T00:59:19.050Z,98827.92
2022-09-20T00:59:54.241Z,98830.20
2022-09-20T01:00:28.243Z,98828.70
2022-09-20T01:01:01.740Z,98827.61
2022-09-20T01:01:35.717Z,98825.33
2022-09-20T01:02:17.099Z,98832.04
2022-09-20T01:02:55.453Z,98828.67
2022-09-20T01:03:33.341Z,98831.30
2022-09-20T01:04:06.606Z,98829.06
2022-09-20T01:04:42.775Z,98831.78
2022-09-20T01:05:18.936Z,98828.17
2022-09-20T01:05:54.126Z,98824.40
2022-09-20T01:06:27.967Z,98827.23
2022-09-20T01:07:04.752Z,98823.81
2022-09-20T01:07:38.395Z,98824.02
2022-09-20T01:08:12.340Z,98824.48
2022-09-20T01:08:51.009Z,98823.94
2022-09-20T01:09:24.160Z,98823.70
2022-09-20T01:09:57.700Z,98824.58
2022-09-20T01:10:32.698Z,98821.77
2022-09-20T01:11:06.108Z,98823.26
2022-09-20T01:11:40.991Z,98820.73
2022-09-20T01:12:19.458Z,98821.16
2022-09-20T01:12:54.033Z,98818.45
2022-09-20T01:13:27.137Z,98823.45
2022-09-20T01:14:00.107Z,98824.13
2022-09-20T01:14:34.752Z,98822.66
2022-09-20T01:15:10.334Z,98824.91
2022-09-20T01:15:46.935Z,98824.03
2022-09-20T01:16:21.712Z,98822.66
2022-09-20T01:16:57.875Z,98822.91
2022-09-20T01:17:35.029Z,98823.30
2022-09-20T01:18:10.322Z,98825.00
2022-09-20T01:18:45.267Z,98825.95
2022-09-20T01:19:42.915Z,98828.59
2022-09-20T01:20:24.184Z,98826.27
2022-09-20T01:20:58.660Z,98828.42
2022-09-20T01:21:31.792Z,98826.81
2022-09-20T01:22:16.107Z,98826.59
2022-09-20T01:23:10.805Z,98825.99
2022-09-20T01:24:06.910Z,98826.13
2022-09-20T01:25:25.281Z,98827.64
2022-09-20T01:26:23.348Z,98823.25
2022-09-20T01:27:18.396Z,98821.64
2022-09-20T01:27:54.012Z,98820.07
2022-09-20T01:28:29.029Z,98820.16
2022-09-20T01:29:46.602Z,98819.94
2022-09-20T01:30:26.228Z,98819.52
2022-09-20T01:31:09.117Z,98818.90
2022-09-20T01:31:50.547Z,98819.80
2022-09-20T01:32:29.850Z,98818.37
2022-09-20T01:33:21.778Z,98818.52
2022-09-20T01:34:01.439Z,98818.06
2022-09-20T01:34:37.215Z,98817.83
2022-09-20T01:35:11.893Z,98819.65
2022-09-20T01:35:49.798Z,98819.75
2022-09-20T01:36:33.712Z,98819.03
2022-09-20T01:37:28.638Z,98819.65
2022-09-20T01:38:31.281Z,98818.77
2022-09-20T01:39:08.772Z,98815.00
2022-09-20T01:40:04.430Z,98813.30
2022-09-20T01:40:49.255Z,98813.56
2022-09-20T01:41:29.378Z,98813.70
2022-09-20T01:42:12.615Z,98812.57
2022-09-20T01:43:03.358Z,98812.82
2022-09-20T01:43:47.226Z,98813.89
2022-09-20T01:44:38.768Z,98815.07
2022-09-20T01:45:32.571Z,98812.52
2022-09-20T01:46:32.954Z,98815.89
2022-09-20T01:47:29.190Z,98815.33
2022-09-20T01:48:14.211Z,98812.36
2022-09-20T01:48:49.658Z,98811.77
2022-09-20T01:49:37.939Z,98812.79
2022-09-20T01:50:52.930Z,98812.21
2022-09-20T01:52:10.474Z,98813.05
2022-09-20T01:53:37.599Z,98815.73
2022-09-20T01:54:10.623Z,98811.39
2022-09-20T01:55:08.635Z,98814.07
2022-09-20T01:56:03.399Z,98814.20
2022-09-20T01:56:48.682Z,98811.61
2022-09-20T01:57:30.752Z,98811.73
2022-09-20T01:58:25.141Z,98813.86
2022-09-20T01:59:19.906Z,98814.55
2022-09-20T01:59:56.757Z,98817.39
2022-09-20T02:00:35.243Z,98817.73
2022-09-20T02:01:31.348Z,98813.29
2022-09-20T02:02:22.733Z,98816.44
2022-09-20T02:03:43.696Z,98817.45
2022-09-20T02:04:34.969Z,98815.75
2022-09-20T02:05:24.370Z,98813.14
2022-09-20T02:06:19.235Z,98816.64
2022-09-20T02:07:19.212Z,98814.55
2022-09-20T02:08:08.318Z,98817.72
2022-09-20T02:08:51.007Z,98819.20
2022-09-20T02:09:33.003Z,98821.96
2022-09-20T02:10:35.501Z,98821.14
2022-09-20T02:11:20.999Z,98821.52
2022-09-20T02:12:33.689Z,98822.58
2022-09-20T02:13:20.701Z,98823.49
2022-09-20T02:14:20.747Z,98822.48
2022-09-20T02:15:01.179Z,98821.92
2022-09-20T02:15:58.616Z,98823.65
2022-09-20T02:16:57.222Z,98821.83
2022-09-20T02:17:48.477Z,98823.17
2022-09-20T02:18:52.520Z,98822.64
2022-09-20T02:19:34.604Z,98823.52
2022-09-20T02:20:23.689Z,98825.16
2022-09-20T02:21:23.319Z,98821.27
2022-09-20T02:22:15.104Z,98821.41
2022-09-20T02:23:21.082Z,98820.39
2022-09-20T02:24:15.926Z,98819.64
2022-09-20T02:25:07.300Z,98818.69
2022-09-20T02:26:01.357Z,98816.44
2022-09-20T02:26:59.022Z,98815.98
2022-09-20T02:27:40.979Z,98816.02
2022-09-20T02:28:50.018Z,98816.73
2022-09-20T02:29:33.866Z,98815.08
2022-09-20T02:30:25.469Z,98819.59
2022-09-20T02:31:32.802Z,98813.33
2022-09-20T02:32:17.824Z,98813.63
2022-09-20T02:33:18.122Z,98816.73
2022-09-20T02:34:21.171Z,98817.47
2022-09-20T02:35:13.489Z,98813.80
2022-09-20T02:36:13.694Z,98812.32
2022-09-20T02:37:05.547Z,98811.83
2022-09-20T02:37:57.063Z,98809.69
2022-09-20T02:38:52.522Z,98807.16
2022-09-20T02:39:35.750Z,98812.17
2022-09-20T02:40:11.910Z,98808.73
2022-09-20T02:40:56.881Z,98809.95
2022-09-20T02:41:42.641Z,98815.35
2022-09-20T02:42:21.538Z,98816.92
2022-09-20T02:43:18.075Z,98816.85
2022-09-20T02:44:24.872Z,98817.80
2022-09-20T02:45:16.396Z,98817.05
2022-09-20T02:46:10.974Z,98821.90
2022-09-20T02:46:56.456Z,98816.91
2022-09-20T02:47:41.683Z,98814.32
2022-09-20T02:48:18.238Z,98817.46
2022-09-20T02:49:18.179Z,98814.21
2022-09-20T02:50:29.169Z,98816.04
2022-09-20T02:51:22.479Z,98814.52
2022-09-20T02:52:07.673Z,98813.60
2022-09-20T02:53:17.976Z,98810.72
2022-09-20T02:54:00.131Z,98810.95
2022-09-20T02:54:57.949Z,98808.50
2022-09-20T02:56:08.657Z,98812.52
2022-09-20T02:56:58.971Z,98810.07
2022-09-20T02:58:06.348Z,98810.83
2022-09-20T02:58:39.403Z,98811.58
2022-09-20T02:59:48.571Z,98812.10
2022-09-20T03:00:29.458Z,98808.64
2022-09-20T03:01:25.814Z,98810.66
2022-09-20T03:02:17.456Z,98812.30
2022-09-20T03:03:18.113Z,98814.70
2022-09-20T03:04:12.470Z,98811.39
2022-09-20T03:05:11.546Z,98813.55
2022-09-20T03:06:25.942Z,98817.18
2022-09-20T03:07:34.324Z,98820.31
2022-09-20T03:08:45.660Z,98820.75
2022-09-20T03:09:39.209Z,98821.09
2022-09-20T03:10:32.376Z,98821.75
2022-09-20T03:11:26.591Z,98821.59
2022-09-20T03:12:33.530Z,98822.34
2022-09-20T03:13:37.598Z,98824.80
2022-09-20T03:14:23.464Z,98825.41
2022-09-20T03:15:21.230Z,98823.11
2022-09-20T03:16:29.623Z,98823.07
2022-09-20T03:17:26.732Z,98823.76
2022-09-20T03:18:14.965Z,98820.83
2022-09-20T03:19:13.002Z,98819.29
2022-09-20T03:20:07.661Z,98823.05
2022-09-20T03:21:02.342Z,98824.63
2022-09-20T03:21:38.130Z,98825.27
2022-09-20T03:22:23.201Z,98823.54
2022-09-20T03:23:27.067Z,98822.75
2022-09-20T03:24:24.049Z,98823.27
2022-09-20T03:25:09.228Z,98826.13
2022-09-20T03:26:21.451Z,98821.58
2022-09-20T03:27:16.204Z,98822.05
2022-09-20T03:27:58.193Z,98822.38
2022-09-20T03:28:49.583Z,98822.58
2022-09-20T03:29:43.179Z,98826.20
2022-09-20T03:30:46.689Z,98822.35
2022-09-20T03:31:46.005Z,98822.04
2022-09-20T03:32:31.468Z,98827.16
2022-09-20T03:33:22.676Z,98827.95
2022-09-20T03:34:14.252Z,98825.13
2022-09-20T03:35:06.646Z,98826.52
2022-09-20T03:36:08.842Z,98826.93
2022-09-20T03:37:10.061Z,98827.77
2022-09-20T03:37:59.690Z,98826.45
2022-09-20T03:38:55.514Z,98825.04
2022-09-20T03:39:38.385Z,98824.31
2022-09-20T03:40:29.876Z,98822.70
2022-09-20T03:41:11.937Z,98822.30
2022-09-20T03:42:18.322Z,98824.10
2022-09-20T03:42:54.805Z,98822.45
2022-09-20T03:44:05.553Z,98822.35
2022-09-20T03:44:58.921Z,98823.31
2022-09-20T03:46:12.773Z,98822.92
2022-09-20T03:46:47.498Z,98822.60
2022-09-20T03:47:37.195Z,98819.36
2022-09-20T03:48:49.586Z,98823.61
2022-09-20T03:49:42.188Z,98822.83
2022-09-20T03:50:53.221Z,98822.46
2022-09-20T03:51:41.691Z,98822.38
2022-09-20T03:52:59.736Z,98822.46
2022-09-20T03:54:04.373Z,98822.59
2022-09-20T03:54:57.672Z,98820.73
2022-09-20T03:55:49.622Z,98821.41
2022-09-20T03:56:43.982Z,98821.42
2022-09-20T03:57:35.941Z,98820.98
2022-09-20T03:58:31.053Z,98822.45
2022-09-20T03:59:25.959Z,98823.31
2022-09-20T04:00:05.790Z,98824.77
2022-09-20T04:01:16.532Z,98826.14
2022-09-20T04:02:08.009Z,98826.79
2022-09-20T04:03:18.707Z,98824.39
2022-09-20T04:04:05.930Z,98826.00
2022-09-20T04:04:53.889Z,98828.13
2022-09-20T04:05:51.273Z,98829.56
2022-09-20T04:07:03.068Z,98827.83
2022-09-20T04:07:48.377Z,98827.00
2022-09-20T04:08:47.892Z,98828.75
2022-09-20T04:09:38.848Z,98829.34
2022-09-20T04:10:25.976Z,98829.95
2022-09-20T04:11:18.099Z,98827.60
2022-09-20T04:12:01.876Z,98825.44
2022-09-20T04:12:50.562Z,98825.33
2022-09-20T04:13:36.427Z,98823.77
2022-09-20T04:14:18.891Z,98825.02
2022-09-20T04:15:01.059Z,98832.29
2022-09-20T04:15:51.804Z,98825.81
2022-09-20T04:16:43.733Z,98828.39
2022-09-20T04:17:35.565Z,98829.75
2022-09-20T04:18:31.646Z,98831.15
2022-09-20T04:19:22.842Z,98833.65
2022-09-20T04:20:14.653Z,98834.29
2022-09-20T04:20:55.631Z,98834.52
2022-09-20T04:21:43.915Z,98834.38
2022-09-20T04:22:20.901Z,98838.30
2022-09-20T04:22:59.105Z,98834.39
2022-09-20T04:23:57.022Z,98836.64
2022-09-20T04:24:30.251Z,98837.35
2022-09-20T04:25:14.925Z,98839.87
2022-09-20T04:25:51.083Z,98836.91
2022-09-20T04:26:31.431Z,98836.22
2022-09-20T04:27:15.546Z,98839.35
2022-09-20T04:28:00.472Z,98838.14
2022-09-20T04:28:55.640Z,98839.21
2022-09-20T04:29:53.356Z,98833.98
2022-09-20T04:30:30.686Z,98839.66
2022-09-20T04:31:24.924Z,98837.86
2022-09-20T04:32:22.142Z,98837.83
2022-09-20T04:33:20.393Z,98839.44
2022-09-20T04:33:57.715Z,98841.96
2022-09-20T04:34:57.887Z,98840.19
2022-09-20T04:36:11.081Z,98837.15
2022-09-20T04:36:58.513Z,98839.41
2022-09-20T04:37:38.722Z,98841.24
2022-09-20T04:38:17.593Z,98842.03
2022-09-20T04:39:05.309Z,98842.19
2022-09-20T04:40:00.404Z,98844.45
2022-09-20T04:40:43.015Z,98844.71
2022-09-20T04:41:51.573Z,98840.98
2022-09-20T04:43:15.656Z,98845.39
2022-09-20T04:44:11.839Z,98845.88
2022-09-20T04:45:24.364Z,98845.25
2022-09-20T04:46:25.691Z,98846.55
2022-09-20T04:47:15.851Z,98844.20
2022-09-20T04:48:42.719Z,98843.35
2022-09-20T04:49:35.982Z,98842.02
2022-09-20T04:50:15.038Z,98841.73
2022-09-20T04:51:18.999Z,98836.52
2022-09-20T04:52:14.162Z,98841.88
2022-09-20T04:53:05.918Z,98840.38
2022-09-20T04:54:08.298Z,98840.70
2022-09-20T04:54:44.949Z,98837.64
2022-09-20T04:55:29.779Z,98838.79
2022-09-20T04:56:22.177Z,98839.15
2022-09-20T04:57:24.802Z,98839.96
2022-09-20T04:58:28.986Z,98840.40
2022-09-20T04:59:11.102Z,98836.73
2022-09-20T05:00:03.144Z,98836.94
2022-09-20T05:01:22.883Z,98840.02
2022-09-20T05:02:27.211Z,98837.71
2022-09-20T05:03:19.016Z,98842.02
2022-09-20T05:04:19.120Z,98844.00
2022-09-20T05:05:11.054Z,98846.77
2022-09-20T05:06:04.989Z,98847.19
2022-09-20T05:06:56.628Z,98843.08
2022-09-20T05:07:48.729Z,98847.67
2022-09-20T05:08:43.753Z,98849.27
2022-09-20T05:09:47.429Z,98853.10
2022-09-20T05:10:55.744Z,98851.93
2022-09-20T05:11:47.825Z,98852.25
2022-09-20T05:12:36.365Z,98855.17
2022-09-20T05:13:51.976Z,98856.44
2022-09-20T05:14:51.696Z,98855.94
2022-09-20T05:15:58.938Z,98855.61
2022-09-20T05:16:53.785Z,98855.45
2022-09-20T05:18:00.028Z,98854.00
2022-09-20T05:19:07.777Z,98850.30
2022-09-20T05:19:47.000Z,98852.86
2022-09-20T05:20:25.882Z,98850.17
2022-09-20T05:21:20.596Z,98848.48
2022-09-20T05:22:31.582Z,98852.66
2022-09-20T05:23:16.723Z,98855.62
2022-09-20T05:24:08.436Z,98859.55
2022-09-20T05:25:28.723Z,98859.61
2022-09-20T05:26:08.518Z,98861.31
2022-09-20T05:26:53.954Z,98859.87
2022-09-20T05:27:48.891Z,98864.07
2022-09-20T05:28:46.086Z,98858.13
2022-09-20T05:29:42.667Z,98867.58
2022-09-20T05:30:30.656Z,98861.08
2022-09-20T05:31:22.426Z,98864.27
2022-09-20T05:32:14.023Z,98869.50
2022-09-20T05:33:24.736Z,98867.64
2022-09-20T05:34:15.946Z,98867.48
2022-09-20T05:35:07.894Z,98869.63
2022-09-20T05:35:44.719Z,98869.68
2022-09-20T05:36:20.808Z,98871.54
2022-09-20T05:37:06.955Z,98869.58
2022-09-20T05:38:14.023Z,98871.27
2022-09-20T05:39:03.585Z,98871.34
2022-09-20T05:40:17.958Z,98873.87
2022-09-20T05:41:09.561Z,98875.19
2022-09-20T05:42:08.361Z,98878.21
2022-09-20T05:43:21.098Z,98878.99
2022-09-20T05:44:22.508Z,98879.05
2022-09-20T05:44:55.602Z,98883.09
2022-09-20T05:45:40.717Z,98883.77
2022-09-20T05:46:32.356Z,98884.20
2022-09-20T05:47:28.741Z,98885.10
2022-09-20T05:48:14.446Z,98884.29
2022-09-20T05:48:59.577Z,98883.77
2022-09-20T05:50:09.941Z,98884.48
2022-09-20T05:50:45.975Z,98888.56
2022-09-20T05:51:50.210Z,98883.96
2022-09-20T05:52:29.580Z,98887.36
2022-09-20T05:53:13.968Z,98890.04
2022-09-20T05:54:05.590Z,98892.98
2022-09-20T05:54:56.939Z,98890.60
2022-09-20T05:55:35.991Z,98893.27
2022-09-20T05:56:37.057Z,98895.33
2022-09-20T05:57:47.752Z,98894.48
2022-09-20T05:58:29.931Z,98890.87
2022-09-20T05:59:24.484Z,98896.44
2022-09-20T06:00:07.791Z,98895.00
2022-09-20T06:00:56.623Z,98899.52
2022-09-20T06:01:40.068Z,98901.30
2022-09-20T06:02:42.000Z,98897.57
2022-09-20T06:03:36.895Z,98899.34
2022-09-20T06:04:38.920Z,98903.83
2022-09-20T06:05:29.030Z,98907.90
2022-09-20T06:06:10.958Z,98903.25
2022-09-20T06:07:12.436Z,98906.85
2022-09-20T06:08:04.689Z,98908.44
2022-09-20T06:08:59.608Z,98909.25
2022-09-20T06:09:35.455Z,98906.60
2022-09-20T06:10:31.870Z,98905.71
2022-09-20T06:11:13.749Z,98907.41
2022-09-20T06:12:21.119Z,98906.08
2022-09-20T06:13:15.955Z,98908.40
2022-09-20T06:14:10.374Z,98903.25
2022-09-20T06:15:12.369Z,98901.91
2022-09-20T06:16:01.498Z,98900.34
2022-09-20T06:16:40.793Z,98900.75
2022-09-20T06:17:26.931Z,98894.71
2022-09-20T06:18:37.002Z,98894.70
2022-09-20T06:19:48.762Z,98893.84
2022-09-20T06:20:37.297Z,98887.11
2022-09-20T06:21:19.448Z,98891.16
2022-09-20T06:22:03.477Z,98890.63
2022-09-20T06:22:39.647Z,98888.20
2022-09-20T06:23:13.227Z,98888.18
2022-09-20T06:23:46.416Z,98891.02
2022-09-20T06:24:43.311Z,98891.22
2022-09-20T06:25:22.629Z,98891.91
2022-09-20T06:26:24.017Z,98897.42
2022-09-20T06:27:03.246Z,98896.29
2022-09-20T06:27:41.055Z,98898.89
2022-09-20T06:28:21.450Z,98898.61
2022-09-20T06:29:00.232Z,98896.98
2022-09-20T06:29:38.909Z,98897.77
2022-09-20T06:30:23.078Z,98897.11
2022-09-20T06:30:57.711Z,98899.27
2022-09-20T06:31:30.931Z,98896.86
2022-09-20T06:32:04.307Z,98901.92
2022-09-20T06:33:00.540Z,98901.09
2022-09-20T06:33:33.826Z,98899.35
2022-09-20T06:34:13.619Z,98902.14
2022-09-20T06:34:48.538Z,98899.31
2022-09-20T06:35:26.519Z,98900.76
2022-09-20T06:36:28.091Z,98904.15
2022-09-20T06:38:06.811Z,98905.12
2022-09-20T06:39:17.895Z,98908.09
2022-09-20T06:40:47.095Z,98909.27
2022-09-20T06:41:28.487Z,98910.10
2022-09-20T06:42:01.507Z,98914.02
2022-09-20T06:42:34.565Z,98912.20
2022-09-20T06:43:07.587Z,98913.41
2022-09-20T06:43:41.358Z,98913.23
2022-09-20T06:44:14.490Z,98914.96
2022-09-20T06:44:47.655Z,98911.75
2022-09-20T06:45:20.757Z,98914.27
2022-09-20T06:45:53.956Z,98913.66
2022-09-20T06:46:32.407Z,98912.17
2022-09-20T06:47:08.944Z,98915.77
2022-09-20T06:47:42.122Z,98922.11
2022-09-20T06:48:15.819Z,98918.20
2022-09-20T06:48:51.450Z,98918.14
2022-09-20T06:49:28.495Z,98922.33
2022-09-20T06:50:01.614Z,98916.95
2022-09-20T06:50:36.662Z,98918.70
2022-09-20T06:51:10.638Z,98922.36
2022-09-20T06:51:43.757Z,98921.74
2022-09-20T06:52:19.666Z,98924.19
2022-09-20T06:52:53.866Z,98925.07
2022-09-20T06:53:31.140Z,98923.84
2022-09-20T06:54:07.031Z,98923.71
2022-09-20T06:54:46.074Z,98928.60
2022-09-20T06:55:29.594Z,98926.66
2022-09-20T06:56:03.543Z,98928.50
2022-09-20T06:56:37.037Z,98927.94
2022-09-20T06:57:10.915Z,98928.39
2022-09-20T06:57:44.317Z,98927.34
2022-09-20T06:58:17.593Z,98931.43
2022-09-20T06:58:52.965Z,98925.44
2022-09-20T06:59:26.068Z,98929.41
2022-09-20T06:59:59.228Z,98927.19
2022-09-20T07:00:32.405Z,98927.92
2022-09-20T07:01:05.613Z,98929.28
2022-09-20T07:01:39.216Z,98931.16
2022-09-20T07:02:12.541Z,98932.59
2022-09-20T07:02:46.990Z,98931.68
2022-09-20T07:03:20.251Z,98935.16
2022-09-20T07:03:53.509Z,98936.33
2022-09-20T07:04:27.292Z,98936.14
2022-09-20T07:05:02.209Z,98936.08
2022-09-20T07:05:36.614Z,98936.14
2022-09-20T07:06:10.826Z,98934.67
2022-09-20T07:06:44.069Z,98931.83
2022-09-20T07:07:20.760Z,98933.45
2022-09-20T07:07:58.739Z,98931.84
2022-09-20T07:08:32.651Z,98928.46
2022-09-20T07:09:06.349Z,98935.06
2022-09-20T07:09:39.431Z,98930.02
2022-09-20T07:10:12.804Z,98930.89
2022-09-20T07:10:45.942Z,98933.86
2022-09-20T07:11:19.111Z,98932.82
2022-09-20T07:11:52.141Z,98932.45
2022-09-20T07:12:25.944Z,98929.63
2022-09-20T07:13:00.874Z,98929.16
2022-09-20T07:13:34.760Z,98933.64
2022-09-20T07:14:08.091Z,98931.73
2022-09-20T07:14:42.040Z,98930.08
2022-09-20T07:15:16.761Z,98931.11
2022-09-20T07:15:50.903Z,98930.25
2022-09-20T07:16:24.859Z,98928.17
2022-09-20T07:16:58.002Z,98931.20
2022-09-20T07:17:31.130Z,98933.91
2022-09-20T07:18:04.320Z,98929.66
2022-09-20T07:18:37.503Z,98931.46
2022-09-20T07:19:10.790Z,98930.15
2022-09-20T07:19:43.957Z,98934.38
2022-09-20T07:20:21.363Z,98933.34
2022-09-20T07:20:56.064Z,98933.83
2022-09-20T07:21:29.387Z,98930.55
2022-09-20T07:22:03.187Z,98931.45
2022-09-20T07:22:36.568Z,98932.28
2022-09-20T07:23:10.372Z,98934.00
2022-09-20T07:23:46.183Z,98932.20
2022-09-20T07:24:20.458Z,98933.56
2022-09-20T07:24:53.760Z,98935.25
2022-09-20T07:25:27.695Z,98933.33
2022-09-20T07:26:01.438Z,98935.52
2022-09-20T07:26:35.303Z,98936.17
2022-09-20T07:27:08.526Z,98936.66
2022-09-20T07:27:41.800Z,98937.99
2022-09-20T07:28:14.966Z,98938.80
2022-09-20T07:28:49.781Z,98936.74
2022-09-20T07:29:23.214Z,98939.17
2022-09-20T07:29:56.782Z,98941.92
2022-09-20T07:30:30.064Z,98940.79
2022-09-20T07:31:03.126Z,98941.18
2022-09-20T07:31:36.946Z,98942.08
2022-09-20T07:32:10.187Z,98941.91
2022-09-20T07:32:43.445Z,98942.84
2022-09-20T07:33:25.293Z,98940.41
2022-09-20T07:33:58.791Z,98937.33
2022-09-20T07:34:32.407Z,98943.11
2022-09-20T07:35:06.123Z,98943.76
2022-09-20T07:35:39.309Z,98944.78
2022-09-20T07:36:13.717Z,98943.00
2022-09-20T07:36:51.629Z,98944.81
2022-09-20T07:37:25.112Z,98946.71
2022-09-20T07:37:58.773Z,98946.72
2022-09-20T07:38:31.931Z,98949.67
2022-09-20T07:39:05.024Z,98947.04
2022-09-20T07:39:38.549Z,98949.19
2022-09-20T07:40:12.272Z,98948.23
2022-09-20T07:40:48.340Z,98951.83
2022-09-20T07:41:23.206Z,98952.27
2022-09-20T07:41:56.956Z,98950.41
2022-09-20T07:42:30.532Z,98952.11
2022-09-20T07:43:03.744Z,98953.95
2022-09-20T07:43:37.457Z,98951.60
2022-09-20T07:44:24.694Z,98955.92
2022-09-20T07:44:58.191Z,98953.14
2022-09-20T07:45:35.767Z,98954.30
2022-09-20T07:46:11.437Z,98954.79
2022-09-20T07:46:46.425Z,98955.27
2022-09-20T07:47:19.475Z,98954.58
2022-09-20T07:47:52.595Z,98957.40
2022-09-20T07:48:31.614Z,98957.35
2022-09-20T07:49:07.023Z,98956.14
2022-09-20T07:49:40.123Z,98960.16
2022-09-20T07:50:13.474Z,98961.05
2022-09-20T07:50:54.362Z,98959.33
2022-09-20T07:51:27.765Z,98963.21
2022-09-20T07:52:01.094Z,98962.84
2022-09-20T07:52:34.272Z,98963.27
2022-09-20T07:53:07.400Z,98964.48
2022-09-20T07:53:41.600Z,98963.52
2022-09-20T07:54:15.121Z,98966.15
2022-09-20T07:54:50.253Z,98967.29
2022-09-20T07:55:23.309Z,98968.09
2022-09-20T07:55:57.312Z,98966.15
2022-09-20T07:56:30.376Z,98967.50
2022-09-20T07:57:05.898Z,98967.81
2022-09-20T07:57:38.994Z,98973.03
2022-09-20T07:58:12.132Z,98970.40
2022-09-20T07:58:50.044Z,98973.56
2022-09-20T07:59:26.230Z,98973.58
2022-09-20T07:59:59.234Z,98972.38
2022-09-20T08:00:32.428Z,98970.56
2022-09-20T08:01:08.976Z,98970.02
2022-09-20T08:01:43.307Z,98970.67
2022-09-20T08:02:17.236Z,98972.08
2022-09-20T08:02:59.309Z,98971.88
2022-09-20T08:03:34.875Z,98970.43
2022-09-20T08:04:09.292Z,98975.43
2022-09-20T08:04:43.721Z,98973.66
2022-09-20T08:05:16.890Z,98974.11
2022-09-20T08:05:50.558Z,98971.20
2022-09-20T08:06:24.590Z,98974.76
2022-09-20T08:06:58.862Z,98974.64
2022-09-20T08:07:32.012Z,98972.37
2022-09-20T08:08:05.134Z,98973.23
2022-09-20T08:08:43.658Z,98973.36
2022-09-20T08:09:16.924Z,98973.21
2022-09-20T08:09:50.846Z,98973.70
2022-09-20T08:10:25.787Z,98973.29
2022-09-20T08:11:07.099Z,98972.97
2022-09-20T08:11:43.183Z,98972.61
2022-09-20T08:14:16.710Z,98972.96
2022-09-20T08:14:49.922Z,98970.95
2022-09-20T08:15:23.130Z,98972.88
2022-09-20T08:16:04.167Z,98969.71
2022-09-20T08:16:43.543Z,98968.71
2022-09-20T08:17:16.701Z,98968.13
2022-09-20T08:17:49.785Z,98965.46
2022-09-20T08:18:22.831Z,98968.13
2022-09-20T08:18:59.118Z,98965.50
2022-09-20T08:19:32.227Z,98965.52
2022-09-20T08:20:06.739Z,98965.35
2022-09-20T08:20:39.867Z,98965.98
2022-09-20T08:21:14.246Z,98962.45
2022-09-20T08:21:48.208Z,98961.39
2022-09-20T08:22:22.405Z,98965.41
2022-09-20T08:23:19.454Z,98964.44
2022-09-20T08:23:49.306Z,98963.23
2022-09-20T08:24:22.708Z,98965.32
2022-09-20T08:24:55.943Z,98966.58
2022-09-20T08:25:29.831Z,98962.48
2022-09-20T08:26:04.201Z,98959.52
2022-09-20T08:26:37.466Z,98962.98
2022-09-20T08:27:10.516Z,98963.90
2022-09-20T08:27:43.840Z,98962.77
2022-09-20T08:28:16.930Z,98963.19
2022-09-20T08:28:53.901Z,98962.41
2022-09-20T08:29:27.036Z,98964.52
2022-09-20T08:30:01.380Z,98962.77
2022-09-20T08:30:34.513Z,98962.25
2022-09-20T08:31:10.392Z,98961.85
2022-09-20T08:31:44.227Z,98961.61
2022-09-20T08:32:17.336Z,98962.42
2022-09-20T08:32:50.618Z,98962.98
2022-09-20T08:33:24.163Z,98962.98
2022-09-20T08:33:58.388Z,98963.31
2022-09-20T08:34:32.082Z,98965.19
2022-09-20T08:35:05.530Z,98965.83
2022-09-20T08:35:38.671Z,98963.45
2022-09-20T08:36:18.597Z,98965.02
2022-09-20T08:36:56.717Z,98965.13
2022-09-20T08:37:30.421Z,98965.32
2022-09-20T08:39:58.829Z,98961.52
2022-09-20T08:40:32.635Z,98962.04
2022-09-20T08:41:16.179Z,98963.83
2022-09-20T08:42:24.453Z,98967.23
2022-09-20T08:42:58.225Z,98965.50
2022-09-20T08:43:45.572Z,98964.31
2022-09-20T08:44:45.185Z,98964.48
2022-09-20T08:45:22.667Z,98962.33
2022-09-20T08:46:13.900Z,98962.45